Terminal Aerodrome Forecast
Issued by NWS

Home | Current Version | Previous Version | Graphics & Text | Print | Product List | Glossary On
Versions: 1 2 3 4 5 6 7 8 9 10 11 12 13 14 15 16 17 18 19 20 21 22
224
FTUS43 KBIS 240702 AAA
TAFDIK
TAF AMD
KDIK 240702Z 2407/2506 24016KT P6SM VCSH FEW200
     FM240900 27017G25KT P6SM BKN100
     FM241300 29029G44KT P6SM SCT120
     FM241600 30024G36KT P6SM FEW150
     FM242000 30018G27KT P6SM SKC
     FM250000 28010KT P6SM FEW250=

USA.gov is the U.S. government's official web portal to all federal, state and local government web resources and services.